Time;durP1;ratioP1;P1;durP2;ratioP2;P2;SDS_P1;SDS_P2;PMS_P1;PMS_P2;Temp;Humidity;BMP_temperature;BMP_pressure;BME280_temperature;BME280_humidity;BME280_pressure;Samples;Min_cycle;Max_cycle;Signal;HPM_P1;HPM_P2
2022/04/04 00:02:14;;;;;;;;;22.50;21.75;;;;;5.56;58.76;102090.31;5064845;28;45590;-69
2022/04/04 00:04:40;;;;;;;;;19.75;17.75;;;;;5.53;59.21;102088.66;5071711;28;46562;-69
2022/04/04 00:07:06;;;;;;;;;17.50;15.50;;;;;5.48;59.73;102091.59;5085089;28;45377;-67
2022/04/04 00:09:31;;;;;;;;;24.25;20.50;;;;;5.41;60.09;102090.19;5070627;28;45512;-69
2022/04/04 00:11:56;;;;;;;;;21.75;19.75;;;;;5.37;59.77;102082.34;5065225;28;45369;-69
2022/04/04 00:14:22;;;;;;;;;22.00;20.50;;;;;5.32;60.33;102090.72;5065060;28;45578;-69
2022/04/04 00:16:47;;;;;;;;;21.00;21.00;;;;;5.26;60.59;102104.47;5084739;28;45318;-69
2022/04/04 00:19:14;;;;;;;;;22.25;18.00;;;;;5.21;60.97;102106.56;5073503;28;45505;-67
2022/04/04 00:21:44;;;;;;;;;24.50;21.75;;;;;5.12;61.11;102087.28;5064919;28;45485;-69
2022/04/04 00:24:09;;;;;;;;;24.75;20.75;;;;;5.16;61.31;102099.69;5071391;28;46430;-69
2022/04/04 00:26:35;;;;;;;;;17.50;17.50;;;;;5.06;61.01;102089.38;5065711;28;45359;-68
2022/04/04 00:29:00;;;;;;;;;22.25;21.00;;;;;5.04;61.42;102090.44;5074480;27;45376;-68
2022/04/04 00:31:26;;;;;;;;;26.50;20.25;;;;;4.97;61.56;102081.75;5067334;28;45593;-68
2022/04/04 00:33:51;;;;;;;;;26.25;18.75;;;;;4.99;61.46;102087.09;5071079;28;46490;-68
2022/04/04 00:36:16;;;;;;;;;27.00;20.00;;;;;4.91;61.75;102075.84;5075682;28;45374;-68
2022/04/04 00:38:42;;;;;;;;;25.50;18.25;;;;;4.96;61.84;102084.56;5069878;28;45346;-68
2022/04/04 00:41:09;;;;;;;;;23.75;19.00;;;;;4.94;61.67;102087.34;5070023;28;45302;-68
2022/04/04 00:43:34;;;;;;;;;21.50;20.25;;;;;4.94;61.57;102086.47;5068635;28;46176;-68
2022/04/04 00:46:00;;;;;;;;;23.75;22.50;;;;;4.91;62.19;102078.53;5070427;28;45176;-69
2022/04/04 00:48:25;;;;;;;;;23.75;22.00;;;;;4.85;62.24;102079.72;5069962;28;45415;-68
2022/04/04 00:50:51;;;;;;;;;26.00;22.75;;;;;4.82;62.38;102085.25;5074428;27;45627;-69
2022/04/04 00:53:16;;;;;;;;;23.25;22.00;;;;;4.77;62.37;102079.25;5064897;28;47770;-69
2022/04/04 00:55:42;;;;;;;;;21.75;19.25;;;;;4.83;62.48;102083.44;5070353;28;45208;-69
2022/04/04 00:58:09;;;;;;;;;23.00;21.25;;;;;4.76;61.89;102063.16;5073950;28;45435;-69
2022/04/04 01:00:35;;;;;;;;;21.25;18.75;;;;;4.82;62.23;102076.34;5064073;28;45504;-69
2022/04/04 01:03:01;;;;;;;;;23.25;23.25;;;;;4.79;62.61;102079.16;5064335;28;47753;-69
2022/04/04 01:05:27;;;;;;;;;22.75;21.25;;;;;4.75;62.56;102072.22;5074612;28;45403;-69
2022/04/04 01:07:52;;;;;;;;;23.00;20.50;;;;;4.78;62.40;102082.81;5080035;27;45381;-69
2022/04/04 01:10:18;;;;;;;;;26.25;21.00;;;;;4.78;62.03;102072.03;5063992;28;45294;-68
2022/04/04 01:12:51;;;;;;;;;24.50;22.75;;;;;4.77;62.09;102064.91;5063837;28;45391;-68
2022/04/04 01:15:17;;;;;;;;;28.00;22.00;;;;;4.79;61.73;102065.72;5076102;28;45346;-68
2022/04/04 01:17:42;;;;;;;;;21.50;18.25;;;;;4.70;62.04;102070.63;5064111;28;45363;-69
2022/04/04 01:20:08;;;;;;;;;26.25;20.50;;;;;4.73;61.61;102068.72;5064788;28;45594;-68
2022/04/04 01:22:33;;;;;;;;;21.25;21.25;;;;;4.66;62.56;102063.66;5063447;28;45646;-69
2022/04/04 01:24:59;;;;;;;;;19.50;19.50;;;;;4.62;62.19;102064.75;5072265;28;45389;-68
2022/04/04 01:27:25;;;;;;;;;24.00;19.25;;;;;4.61;62.53;102065.69;5064217;27;45235;-69
2022/04/04 01:29:50;;;;;;;;;22.25;22.25;;;;;4.57;62.21;102061.44;5076198;27;45408;-69
2022/04/04 01:32:15;;;;;;;;;18.50;18.50;;;;;4.55;62.68;102068.69;5061325;28;46946;-69
2022/04/04 01:34:41;;;;;;;;;15.25;15.25;;;;;4.52;62.34;102057.25;5074813;28;45369;-68
2022/04/04 01:37:06;;;;;;;;;20.00;19.00;;;;;4.43;62.90;102042.44;5063373;28;45227;-68
2022/04/04 01:39:32;;;;;;;;;16.50;16.50;;;;;4.48;62.67;102051.13;5074955;28;45145;-69
2022/04/04 01:41:57;;;;;;;;;22.00;21.00;;;;;4.45;62.54;102047.72;5063127;28;46326;-69
2022/04/04 01:44:22;;;;;;;;;23.25;19.75;;;;;4.45;62.66;102053.13;5074405;28;45215;-69
2022/04/04 01:46:48;;;;;;;;;24.25;20.75;;;;;4.43;62.62;102050.50;5063371;28;45422;-69
2022/04/04 01:49:13;;;;;;;;;21.75;19.25;;;;;4.45;62.31;102051.28;5065715;28;45293;-69
2022/04/04 01:51:39;;;;;;;;;25.75;19.50;;;;;4.42;62.73;102050.56;5062876;28;46433;-69
2022/04/04 01:54:05;;;;;;;;;28.25;22.25;;;;;4.39;62.58;102043.50;5068133;28;45351;-68
2022/04/04 01:56:31;;;;;;;;;18.50;13.50;;;;;4.38;62.34;102036.41;5067606;28;45452;-69
2022/04/04 01:58:56;;;;;;;;;23.25;19.00;;;;;4.38;62.17;102033.72;5065231;28;45246;-69
2022/04/04 02:01:23;;;;;;;;;21.25;17.00;;;;;4.40;61.91;102031.81;5068206;28;47273;-69
2022/04/04 02:03:55;;;;;;;;;20.50;18.25;;;;;4.38;62.07;102033.72;5075072;28;45431;-68
2022/04/04 02:06:20;;;;;;;;;19.25;18.50;;;;;4.43;62.00;102033.47;5081625;28;45336;-68
2022/04/04 02:08:47;;;;;;;;;16.50;16.50;;;;;4.45;61.79;102032.47;5071591;27;45458;-68
2022/04/04 02:11:15;;;;;;;;;12.25;12.25;;;;;4.45;61.50;102031.59;5061612;28;47586;-69
2022/04/04 02:13:41;;;;;;;;;20.75;18.00;;;;;4.41;61.61;102022.78;5065132;28;45293;-69
2022/04/04 02:16:06;;;;;;;;;21.00;19.00;;;;;4.36;62.10;102019.47;5077030;28;45258;-69
2022/04/04 02:18:34;;;;;;;;;20.00;18.25;;;;;4.38;62.25;102028.34;5079063;28;45426;-69
2022/04/04 02:21:00;;;;;;;;;21.00;17.25;;;;;4.37;62.20;102020.34;5081728;28;47880;-69
2022/04/04 02:23:25;;;;;;;;;14.25;14.25;;;;;4.42;61.66;102021.84;5067189;28;45743;-69
2022/04/04 02:25:53;;;;;;;;;16.75;14.25;;;;;4.35;62.41;102019.53;5072986;28;45437;-69
2022/04/04 02:28:19;;;;;;;;;15.25;15.25;;;;;4.35;62.28;102019.53;5071994;27;45329;-69
2022/04/04 02:30:46;;;;;;;;;22.50;20.75;;;;;4.27;62.61;102009.16;5077314;28;47228;-69
2022/04/04 02:33:15;;;;;;;;;22.00;19.00;;;;;4.29;62.14;102018.03;5066842;28;45398;-69
2022/04/04 02:35:40;;;;;;;;;23.25;17.25;;;;;4.24;62.76;102017.38;5074641;28;45251;-67
2022/04/04 02:38:07;;;;;;;;;22.00;19.25;;;;;4.27;62.93;102020.78;5068676;28;45331;-67
2022/04/04 02:40:32;;;;;;;;;19.50;19.50;;;;;4.22;62.79;102005.84;5072313;28;47736;-68
2022/04/04 02:42:58;;;;;;;;;23.50;20.25;;;;;4.24;62.75;102001.22;5072288;28;45505;-68
2022/04/04 02:45:24;;;;;;;;;19.75;19.75;;;;;4.27;62.52;102001.09;5076392;28;45358;-68
2022/04/04 02:47:50;;;;;;;;;25.50;22.75;;;;;4.30;62.53;101998.25;5082582;28;45246;-68
2022/04/04 02:50:16;;;;;;;;;22.00;21.25;;;;;4.27;62.63;102003.78;5069799;28;45674;-67
2022/04/04 02:52:43;;;;;;;;;31.00;24.50;;;;;4.21;63.03;102004.97;5066341;28;45508;-67
2022/04/04 02:57:55;;;;;;;;;27.50;24.25;;;;;4.13;63.40;102006.28;5068350;28;45416;-67
2022/04/04 03:00:20;;;;;;;;;29.50;25.50;;;;;4.14;63.19;102010.72;5065113;28;46002;-69
2022/04/04 03:02:47;;;;;;;;;31.75;27.75;;;;;4.15;63.48;102004.41;5063733;28;45468;-69
2022/04/04 03:05:13;;;;;;;;;31.50;23.75;;;;;4.14;63.20;101999.97;5079056;28;45313;-69
2022/04/04 03:07:38;;;;;;;;;26.75;24.75;;;;;4.12;63.82;101996.47;5083603;28;45458;-69
2022/04/04 03:10:05;;;;;;;;;23.50;21.75;;;;;4.09;63.75;101985.91;5069323;28;46530;-68
2022/04/04 03:12:31;;;;;;;;;28.25;25.50;;;;;4.12;63.95;101999.16;5084337;28;45385;-69
2022/04/04 03:14:56;;;;;;;;;23.75;21.50;;;;;4.08;63.37;102000.28;5081362;28;45410;-69
2022/04/04 03:17:22;;;;;;;;;23.75;22.25;;;;;4.09;63.42;101994.81;5082821;27;45340;-69
2022/04/04 03:19:47;;;;;;;;;24.25;22.25;;;;;4.01;63.89;101983.59;5065760;28;45386;-68
2022/04/04 03:22:13;;;;;;;;;23.00;21.25;;;;;4.06;63.73;101986.03;5065303;28;45455;-69
2022/04/04 03:24:39;;;;;;;;;22.00;20.00;;;;;4.02;63.71;101985.31;5073485;28;45506;-69
2022/04/04 03:27:04;;;;;;;;;19.25;17.75;;;;;4.03;63.44;101970.91;5085907;28;45392;-68
2022/04/04 03:29:30;;;;;;;;;20.50;18.50;;;;;4.00;63.40;101980.97;5070410;27;46325;-68
2022/04/04 03:31:55;;;;;;;;;25.75;20.75;;;;;4.08;63.32;101978.78;5064890;28;45381;-68
2022/04/04 03:34:22;;;;;;;;;26.75;20.00;;;;;4.01;63.56;101977.34;5075663;28;45418;-68
2022/04/04 03:36:47;;;;;;;;;25.50;17.00;;;;;3.95;63.38;101962.34;5073575;28;45340;-68
2022/04/04 03:39:16;;;;;;;;;21.50;19.25;;;;;3.92;63.27;101960.72;5067652;28;47911;-68
2022/04/04 03:41:43;;;;;;;;;19.00;15.50;;;;;3.99;63.15;101968.47;5082735;28;45708;-68
2022/04/04 03:44:09;;;;;;;;;15.25;15.25;;;;;3.96;62.92;101968.59;5074733;27;45456;-68
2022/04/04 03:46:34;;;;;;;;;17.00;17.00;;;;;3.88;62.90;101961.78;5065155;28;45584;-68
2022/04/04 03:49:00;;;;;;;;;19.50;17.75;;;;;3.87;63.51;101954.66;5076163;28;46912;-68
2022/04/04 03:51:25;;;;;;;;;16.00;13.75;;;;;3.91;63.02;101956.28;5066765;27;45315;-68
2022/04/04 03:53:50;;;;;;;;;19.00;17.00;;;;;3.88;63.06;101955.53;5067123;28;45450;-68
2022/04/04 03:56:16;;;;;;;;;25.50;20.75;;;;;3.72;63.01;101936.66;5065342;28;45428;-70
2022/04/04 03:58:41;;;;;;;;;23.00;21.25;;;;;3.82;63.20;101948.66;5077751;28;46941;-69
2022/04/04 04:01:06;;;;;;;;;26.75;24.25;;;;;3.79;63.09;101940.78;5070949;28;45391;-69
2022/04/04 04:03:34;;;;;;;;;27.75;25.75;;;;;3.78;63.04;101941.72;5066780;28;45428;-69
2022/04/04 04:06:11;;;;;;;;;27.75;25.75;;;;;3.79;62.87;101940.78;5080731;28;45582;-69
2022/04/04 04:08:41;;;;;;;;;30.25;25.00;;;;;3.80;63.28;101950.53;5074326;28;46239;-69
2022/04/04 04:11:07;;;;;;;;;29.00;26.75;;;;;3.82;62.84;101948.66;5064513;28;45321;-68
2022/04/04 04:13:32;;;;;;;;;29.50;26.50;;;;;3.83;62.51;101934.28;5065184;28;45455;-68
2022/04/04 04:15:58;;;;;;;;;29.25;23.00;;;;;3.84;62.89;101938.72;5077899;28;45592;-69
2022/04/04 04:18:24;;;;;;;;;28.75;26.00;;;;;3.78;62.97;101936.34;5075805;28;46571;-69
2022/04/04 04:20:50;;;;;;;;;25.00;22.25;;;;;3.70;62.89;101921.53;5064418;28;45753;-68
2022/04/04 04:23:16;;;;;;;;;26.25;20.75;;;;;3.75;62.99;101932.91;5064671;28;45483;-69
2022/04/04 04:25:42;;;;;;;;;22.00;19.25;;;;;3.78;62.57;101922.03;5073394;28;45518;-68
2022/04/04 04:28:09;;;;;;;;;19.75;15.25;;;;;3.73;62.55;101922.22;5067972;27;46425;-68
2022/04/04 04:30:35;;;;;;;;;19.75;19.50;;;;;3.78;62.17;101922.03;5064371;27;45449;-68
2022/04/04 04:33:02;;;;;;;;;15.50;15.50;;;;;3.71;62.59;101916.09;5066415;28;45531;-68
2022/04/04 04:35:28;;;;;;;;;21.25;18.75;;;;;3.75;62.43;101906.91;5074004;28;45484;-69
2022/04/04 04:37:54;;;;;;;;;27.25;17.25;;;;;3.79;61.87;101911.19;5080490;28;46185;-68
2022/04/04 04:40:20;;;;;;;;;17.00;16.25;;;;;3.80;62.48;101909.34;5067380;28;45263;-68
2022/04/04 04:42:47;;;;;;;;;23.25;22.25;;;;;3.77;62.23;101910.41;5065900;28;45313;-69
2022/04/04 04:45:13;;;;;;;;;27.75;23.00;;;;;3.80;62.13;101915.59;5073107;27;45358;-69
2022/04/04 04:47:39;;;;;;;;;35.75;26.75;;;;;3.82;62.02;101905.66;5063992;28;45343;-68
2022/04/04 04:50:05;;;;;;;;;25.00;21.75;;;;;3.82;62.22;101913.72;5064814;28;45404;-68
2022/04/04 04:52:32;;;;;;;;;24.25;20.50;;;;;3.85;61.86;101907.31;5062900;28;45450;-68
2022/04/04 04:54:57;;;;;;;;;25.75;24.50;;;;;3.85;61.95;101905.50;5084248;27;45408;-68
2022/04/04 04:57:23;;;;;;;;;17.50;16.75;;;;;3.87;61.59;101905.44;5063096;28;46304;-69
2022/04/04 04:59:48;;;;;;;;;18.00;16.75;;;;;3.83;61.62;101899.34;5068774;28;45387;-69
2022/04/04 05:02:14;;;;;;;;;18.00;17.00;;;;;3.87;61.46;101906.28;5064463;28;45388;-69
2022/04/04 05:04:40;;;;;;;;;19.00;14.25;;;;;3.86;61.57;101903.69;5077200;28;45604;-69
2022/04/04 05:07:07;;;;;;;;;25.00;18.50;;;;;3.90;61.47;101911.50;5083715;27;45492;-68
2022/04/04 05:09:34;;;;;;;;;16.50;14.00;;;;;3.82;61.02;101897.59;5075391;27;45611;-70
2022/04/04 05:11:59;;;;;;;;;14.00;14.00;;;;;3.88;61.35;101894.59;5063290;28;45413;-68
2022/04/04 05:14:25;;;;;;;;;19.75;16.00;;;;;3.84;61.50;101905.56;5067109;28;45499;-68
2022/04/04 05:16:53;;;;;;;;;15.25;15.25;;;;;3.85;61.33;101902.81;5061109;28;46950;-69
2022/04/04 05:19:25;;;;;;;;;15.00;12.50;;;;;3.88;61.22;101908.03;5076931;27;45425;-67
2022/04/04 05:21:51;;;;;;;;;19.75;14.00;;;;;3.92;60.72;101904.25;5062364;28;45329;-68
2022/04/04 05:24:17;;;;;;;;;18.50;17.00;;;;;3.92;61.13;101893.50;5073028;28;45434;-67
2022/04/04 05:26:43;;;;;;;;;14.50;12.50;;;;;3.86;60.95;101904.56;5063523;28;45406;-68
2022/04/04 05:29:09;;;;;;;;;14.25;14.25;;;;;3.89;61.44;101900.84;5069768;27;45673;-68
2022/04/04 05:31:35;;;;;;;;;19.25;19.25;;;;;3.91;60.81;101899.81;5061909;28;45338;-67
2022/04/04 05:34:07;;;;;;;;;18.00;17.50;;;;;3.92;60.87;101904.25;5070244;28;45511;-69
2022/04/04 05:36:36;;;;;;;;;18.00;17.50;;;;;3.89;60.98;101904.41;5063261;28;47208;-68
2022/04/04 05:39:03;;;;;;;;;18.25;16.25;;;;;3.86;61.09;101901.00;5063488;28;45381;-68
2022/04/04 05:41:28;;;;;;;;;16.50;15.25;;;;;3.88;61.05;101899.97;5069676;28;45405;-68
2022/04/04 05:43:54;;;;;;;;;22.75;20.50;;;;;3.91;60.78;101890.88;5070576;28;45464;-68
2022/04/04 05:46:20;;;;;;;;;23.50;19.50;;;;;3.96;61.05;101893.31;5070673;28;45571;-68
2022/04/04 05:48:46;;;;;;;;;22.75;18.75;;;;;4.01;60.49;101893.97;5070069;28;45482;-68
2022/04/04 05:51:13;;;;;;;;;14.50;13.75;;;;;4.02;60.44;101888.50;5059617;28;45326;-69
2022/04/04 05:53:39;;;;;;;;;22.75;22.25;;;;;3.99;60.40;101899.44;5064554;28;45478;-69
2022/04/04 05:56:05;;;;;;;;;18.25;18.25;;;;;4.03;60.43;101887.56;5069593;28;47918;-70
2022/04/04 05:58:31;;;;;;;;;24.00;21.00;;;;;4.16;60.20;101891.38;5063804;28;45581;-70
2022/04/04 06:00:57;;;;;;;;;21.00;18.00;;;;;4.16;59.84;101895.88;5070360;28;45530;-69
2022/04/04 06:03:23;;;;;;;;;18.00;16.75;;;;;4.15;59.73;101888.75;5075824;28;45325;-69
2022/04/04 06:05:49;;;;;;;;;22.75;17.50;;;;;4.30;59.67;101887.97;5080240;28;47091;-69
2022/04/04 06:08:19;;;;;;;;;20.75;16.75;;;;;4.40;59.56;101883.81;5073901;27;45453;-70
2022/04/04 06:10:45;;;;;;;;;18.25;16.75;;;;;5.57;56.87;101876.38;5076524;28;45438;-69
2022/04/04 06:13:15;;;;;;;;;17.25;17.25;;;;;6.17;54.45;101867.41;5061751;28;45226;-70
2022/04/04 06:15:42;;;;;;;;;18.00;17.75;;;;;5.80;54.77;101862.44;5074395;28;46149;-69
2022/04/04 06:18:08;;;;;;;;;14.50;14.50;;;;;5.71;54.82;101876.44;5061003;27;45389;-70
2022/04/04 06:20:34;;;;;;;;;17.75;17.25;;;;;5.55;55.44;101875.63;5069940;28;45468;-70
2022/04/04 06:23:00;;;;;;;;;18.00;15.75;;;;;5.33;55.91;101876.84;5061307;28;45248;-70
2022/04/04 06:25:26;;;;;;;;;18.50;18.00;;;;;5.41;55.79;101871.88;5069879;28;46758;-70
2022/04/04 06:27:52;;;;;;;;;20.25;17.25;;;;;5.37;56.02;101870.34;5064642;27;45266;-70
2022/04/04 06:30:18;;;;;;;;;18.25;17.00;;;;;5.21;56.12;101877.53;5070106;28;45240;-71
2022/04/04 06:32:44;;;;;;;;;22.75;18.00;;;;;5.41;55.81;101865.63;5060714;28;45265;-71
2022/04/04 06:35:16;;;;;;;;;9.00;9.00;;;;;5.64;55.19;101870.56;5071257;27;45379;-70
2022/04/04 06:37:43;;;;;;;;;14.75;12.25;;;;;6.61;52.33;101866.50;5076687;28;45804;-69
2022/04/04 06:40:10;;;;;;;;;21.75;18.00;;;;;6.74;51.79;101863.88;5065190;28;45362;-70
2022/04/04 06:42:41;;;;;;;;;18.50;15.50;;;;;6.34;52.88;101863.69;5060244;28;45362;-70
2022/04/04 06:45:08;;;;;;;;;16.00;16.00;;;;;6.36;52.64;101869.84;5064944;28;45575;-71
2022/04/04 06:47:33;;;;;;;;;17.50;15.25;;;;;6.27;52.98;101856.94;5062575;28;45568;-70
2022/04/04 06:50:00;;;;;;;;;18.25;15.00;;;;;6.14;52.30;101864.88;5064971;28;45389;-70
2022/04/04 06:52:26;;;;;;;;;17.25;15.25;;;;;6.05;52.96;101864.59;5059872;28;45318;-70
2022/04/04 06:54:53;;;;;;;;;17.00;15.25;;;;;6.07;53.06;101865.34;5074076;28;48260;-71
2022/04/04 06:57:19;;;;;;;;;20.75;16.25;;;;;6.26;52.52;101857.88;5059954;28;45477;-70
2022/04/04 06:59:45;;;;;;;;;16.50;15.50;;;;;6.09;52.76;101861.59;5063508;28;45389;-70
2022/04/04 07:02:10;;;;;;;;;12.75;11.50;;;;;6.06;52.50;101861.81;5061047;28;45506;-71
2022/04/04 07:04:37;;;;;;;;;21.50;15.75;;;;;6.17;52.56;101848.50;5078754;28;45284;-70
2022/04/04 07:07:04;;;;;;;;;17.25;14.00;;;;;6.23;52.18;101841.88;5084185;28;45545;-71
2022/04/04 07:09:29;;;;;;;;;20.50;18.75;;;;;6.36;51.67;101847.38;5067253;28;45318;-71
2022/04/04 07:11:55;;;;;;;;;16.00;15.00;;;;;6.48;51.23;101854.72;5085324;28;45341;-71
2022/04/04 07:14:20;;;;;;;;;15.75;13.50;;;;;6.48;49.87;101838.53;5073201;27;48106;-71
2022/04/04 07:16:46;;;;;;;;;16.25;11.00;;;;;6.71;48.74;101842.50;5069048;28;45220;-71
2022/04/04 07:19:15;;;;;;;;;10.25;7.25;;;;;6.59;48.85;101839.59;5069897;28;45349;-71
2022/04/04 07:21:42;;;;;;;;;12.25;10.25;;;;;6.86;48.63;101834.28;5074044;28;45261;-71
2022/04/04 07:24:07;;;;;;;;;13.50;11.25;;;;;6.92;47.99;101820.38;5069610;28;46231;-71
2022/04/04 07:26:33;;;;;;;;;15.00;12.50;;;;;6.82;47.36;101821.94;5066744;28;45374;-71
2022/04/04 07:28:58;;;;;;;;;14.75;9.75;;;;;6.66;47.32;101829.25;5069951;27;45421;-70
2022/04/04 07:31:23;;;;;;;;;9.75;7.75;;;;;6.44;47.36;101823.47;5068386;27;45500;-71
2022/04/04 07:33:49;;;;;;;;;10.50;10.00;;;;;6.80;47.91;101821.16;5069342;28;45517;-71
2022/04/04 07:36:14;;;;;;;;;9.75;6.75;;;;;6.84;46.95;101816.44;5069242;28;45262;-69
2022/04/04 07:38:40;;;;;;;;;14.75;10.75;;;;;6.87;47.35;101818.91;5068102;28;45385;-69
2022/04/04 07:41:05;;;;;;;;;10.25;7.25;;;;;7.14;46.58;101819.84;5070857;27;45417;-71
2022/04/04 07:43:31;;;;;;;;;14.25;13.00;;;;;7.48;46.82;101810.38;5069303;27;48454;-70
2022/04/04 07:45:57;;;;;;;;;9.00;8.00;;;;;7.62;45.51;101809.44;5071752;28;45318;-70
2022/04/04 07:48:22;;;;;;;;;19.25;13.75;;;;;7.60;45.44;101811.38;5066582;28;45494;-70
2022/04/04 07:50:48;;;;;;;;;16.25;13.75;;;;;7.80;45.28;101808.19;5073509;28;45468;-70
2022/04/04 07:53:13;;;;;;;;;11.75;11.25;;;;;7.64;44.74;101811.06;5066366;28;46503;-70
2022/04/04 07:55:40;;;;;;;;;16.75;10.25;;;;;7.57;44.80;101796.25;5063348;28;45452;-69
2022/04/04 07:58:06;;;;;;;;;9.00;9.00;;;;;7.94;44.64;101783.75;5073425;28;45206;-71
2022/04/04 08:00:32;;;;;;;;;6.50;4.50;;;;;7.69;43.07;101784.56;5062662;28;45405;-71
2022/04/04 08:02:57;;;;;;;;;9.67;7.67;;;;;7.87;43.12;101787.88;5065637;28;46027;-70
2022/04/04 08:05:24;;;;;;;;;5.33;5.33;;;;;7.86;42.39;101778.00;5072433;28;45357;-71
2022/04/04 08:07:52;;;;;;;;;7.00;7.00;;;;;8.19;42.16;101782.91;5080614;28;45439;-70
2022/04/04 08:10:18;;;;;;;;;7.00;7.00;;;;;8.07;41.53;101770.25;5070667;28;45650;-71
2022/04/04 08:12:45;;;;;;;;;7.00;7.00;;;;;8.14;40.90;101775.13;5081697;28;45404;-71
2022/04/04 08:15:11;;;;;;;;;6.75;6.75;;;;;8.35;41.01;101771.88;5063664;28;45488;-71
2022/04/04 08:17:37;;;;;;;;;11.00;8.00;;;;;8.68;40.33;101768.63;5068717;28;45420;-70
2022/04/04 08:20:03;;;;;;;;;5.25;3.00;;;;;8.68;39.80;101763.19;5071017;28;45248;-71
2022/04/04 08:22:29;;;;;;;;;3.00;3.00;;;;;8.87;39.66;101752.72;5077212;28;45635;-70
2022/04/04 08:24:54;;;;;;;;;7.00;6.33;;;;;9.39;39.53;101757.84;5075091;28;45424;-70
2022/04/04 08:27:22;;;;;;;;;8.33;6.67;;;;;9.96;38.98;101760.63;5062868;28;45259;-71
2022/04/04 08:29:48;;;;;;;;;5.67;5.67;;;;;9.62;37.26;101746.09;5069850;27;45390;-70
2022/04/04 08:32:13;;;;;;;;;9.00;7.67;;;;;9.62;37.79;101745.22;5063032;28;45350;-70
2022/04/04 08:34:39;;;;;;;;;7.00;5.00;;;;;9.75;36.73;101741.44;5074868;28;45378;-70
2022/04/04 08:37:05;;;;;;;;;4.00;4.00;;;;;9.59;37.76;101745.47;5063525;28;45472;-70
2022/04/04 08:39:30;;;;;;;;;2.33;2.00;;;;;9.67;37.70;101737.59;5075743;28;45304;-70
2022/04/04 08:41:57;;;;;;;;;3.33;3.33;;;;;10.27;37.06;101748.25;5063568;28;46604;-70
2022/04/04 08:44:24;;;;;;;;;5.67;5.67;;;;;10.00;36.27;101734.13;5066152;28;45372;-70
2022/04/04 08:46:51;;;;;;;;;6.00;3.00;;;;;10.14;36.35;101742.91;5063400;28;45388;-70
2022/04/04 08:49:17;;;;;;;;;6.67;6.67;;;;;10.01;36.18;101742.13;5069764;28;45311;-71
2022/04/04 08:51:43;;;;;;;;;3.00;3.00;;;;;9.90;36.51;101735.81;5063566;28;45516;-70
2022/04/04 08:54:08;;;;;;;;;10.00;5.00;;;;;10.53;35.52;101719.84;5070679;28;45412;-70
2022/04/04 08:56:34;;;;;;;;;5.33;2.67;;;;;10.39;35.46;101730.09;5079871;28;45507;-70
2022/04/04 08:59:00;;;;;;;;;4.33;4.00;;;;;10.62;35.20;101734.53;5069424;28;45367;-70
2022/04/04 09:01:27;;;;;;;;;3.33;3.33;;;;;11.50;34.66;101716.25;5063562;28;46709;-70
2022/04/04 09:04:14;;;;;;;;;4.00;4.00;;;;;12.11;33.47;101716.44;5072604;28;45707;-70
2022/04/04 09:06:47;;;;;;;;;4.00;4.00;;;;;11.70;33.04;101720.84;5081492;28;45391;-70
2022/04/04 09:09:23;;;;;;;;;4.67;2.00;;;;;11.31;32.97;101726.97;5069449;28;45227;-70
2022/04/04 09:12:13;;;;;;;;;3.00;1.00;;;;;11.72;31.95;101712.56;5082534;28;46191;-70
2022/04/04 09:14:45;;;;;;;;;3.00;3.00;;;;;11.47;32.55;101705.63;5065921;27;45401;-72
2022/04/04 09:17:12;;;;;;;;;3.00;3.00;;;;;10.75;33.68;101720.81;5083239;28;45370;-70
2022/04/04 09:19:38;;;;;;;;;6.00;3.75;;;;;11.42;33.84;101707.88;5073166;28;45440;-68
2022/04/04 09:22:06;;;;;;;;;3.00;3.00;;;;;11.80;32.77;101701.03;5083408;28;46105;-70
2022/04/04 09:24:51;;;;;;;;;3.00;3.00;;;;;10.89;32.89;101701.50;5070347;28;45408;-70
2022/04/04 09:27:21;;;;;;;;;13.00;5.33;;;;;11.39;33.12;101700.00;5062065;28;45225;-70
2022/04/04 09:29:48;;;;;;;;;3.00;3.00;;;;;12.03;31.06;101681.69;5073142;28;45439;-69
2022/04/04 09:32:15;;;;;;;;;4.00;4.00;;;;;12.19;31.20;101673.03;5062234;28;46196;-69
2022/04/04 09:35:04;;;;;;;;;2.67;2.67;;;;;12.54;31.30;101688.94;5073595;28;45754;-69
2022/04/04 09:37:33;;;;;;;;;1.00;1.00;;;;;12.09;30.04;101677.56;5062548;28;45357;-69
2022/04/04 09:40:15;;;;;;;;;3.00;3.00;;;;;11.02;31.09;101676.88;5074218;28;45336;-69
2022/04/04 09:42:51;;;;;;;;;3.00;3.00;;;;;10.70;31.23;101685.00;5062535;28;47303;-70
2022/04/04 09:45:18;;;;;;;;;2.67;2.00;;;;;10.80;31.72;101670.53;5062909;28;46088;-70
2022/04/04 09:47:50;;;;;;;;;2.00;2.00;;;;;10.95;31.56;101681.13;5063130;28;45313;-70
2022/04/04 09:50:38;;;;;;;;;4.33;2.67;;;;;11.30;31.26;101666.25;5074790;28;45465;-70
2022/04/04 09:53:09;;;;;;;;;4.00;4.00;;;;;11.94;31.20;101662.56;5065183;28;46296;-70
2022/04/04 09:55:40;;;;;;;;;1.00;1.00;;;;;11.58;30.82;101658.44;5062549;28;45369;-70
2022/04/04 09:58:08;;;;;;;;;6.00;6.00;;;;;12.07;31.59;101657.75;5073170;28;45460;-71
2022/04/04 10:00:36;;;;;;;;;5.00;4.67;;;;;12.36;29.80;101657.88;5063114;28;45334;-70
2022/04/04 10:03:04;;;;;;;;;2.00;2.00;;;;;12.37;29.31;101655.03;5064157;28;46757;-71
2022/04/04 10:05:31;;;;;;;;;3.00;3.00;;;;;12.56;29.19;101653.38;5077201;28;45397;-69
2022/04/04 10:07:57;;;;;;;;;3.00;3.00;;;;;12.51;30.00;101637.41;5079064;28;45160;-70
2022/04/04 10:10:28;;;;;;;;;2.67;2.67;;;;;13.57;29.24;101638.38;5087088;27;45584;-67
2022/04/04 10:12:54;;;;;;;;;5.33;3.00;;;;;13.32;27.96;101624.47;5080050;27;45351;-68
2022/04/04 10:15:21;;;;;;;;;2.33;2.33;;;;;13.97;28.10;101627.19;5074056;28;45317;-68
2022/04/04 10:17:48;;;;;;;;;3.00;3.00;;;;;14.30;26.89;101627.66;5089660;28;44824;-68
2022/04/04 10:20:14;;;;;;;;;2.67;2.67;;;;;14.60;27.04;101627.38;5071934;28;45498;-68
2022/04/04 10:22:39;;;;;;;;;2.00;2.00;;;;;14.99;26.95;101619.75;5065376;28;47105;-69
2022/04/04 10:25:07;;;;;;;;;2.67;2.67;;;;;15.03;25.96;101617.59;5075004;28;45140;-67
2022/04/04 10:27:34;;;;;;;;;1.00;0.00;;;;;14.27;26.51;101626.06;5063224;27;45510;-70
2022/04/04 10:30:08;;;;;;;;;4.00;2.67;;;;;14.36;26.53;101605.19;5069080;28;45374;-69
2022/04/04 10:32:34;;;;;;;;;3.00;3.00;;;;;13.85;27.42;101614.75;5059915;28;47217;-70
2022/04/04 10:35:12;;;;;;;;;3.33;3.00;;;;;13.38;26.66;101607.50;5072680;28;45316;-71
2022/04/04 10:37:45;;;;;;;;;2.33;2.33;;;;;13.70;27.21;101598.97;5063421;28;45454;-71
2022/04/04 10:40:29;;;;;;;;;2.00;2.00;;;;;14.34;27.23;101605.31;5070963;28;45203;-69
2022/04/04 10:43:07;;;;;;;;;4.00;3.67;;;;;14.30;27.47;101601.19;5068303;28;45416;-71
2022/04/04 10:45:52;;;;;;;;;5.33;5.00;;;;;14.33;26.06;101594.53;5074737;28;45309;-71
2022/04/04 10:48:19;;;;;;;;;4.00;4.00;;;;;14.18;26.52;101588.72;5067907;28;45222;-71
2022/04/04 10:50:45;;;;;;;;;3.00;3.00;;;;;14.80;26.24;101571.53;5065903;28;45496;-71
2022/04/04 10:53:10;;;;;;;;;3.67;3.00;;;;;14.06;26.21;101586.34;5068267;28;45378;-70
2022/04/04 10:55:36;;;;;;;;;1.33;1.33;;;;;13.33;27.03;101574.34;5067482;28;45332;-71
2022/04/04 10:58:07;;;;;;;;;2.67;2.67;;;;;13.38;27.75;101574.75;5067350;28;46714;-71
2022/04/04 11:00:49;;;;;;;;;2.67;2.00;;;;;13.23;27.04;101567.00;5068555;28;45405;-71
2022/04/04 11:03:15;;;;;;;;;4.67;4.67;;;;;13.62;27.06;101567.81;5068188;28;46058;-72
2022/04/04 11:09:05;;;;;;;;;6.00;5.00;;;;;13.15;27.65;101560.59;5075577;28;45412;-70
2022/04/04 11:11:50;;;;;;;;;6.00;6.00;;;;;13.45;28.03;101570.41;5078162;28;45639;-71
2022/04/04 11:14:46;;;;;;;;;6.00;6.00;;;;;13.86;27.56;101558.25;5065993;28;46274;-71
2022/04/04 11:17:13;;;;;;;;;5.00;3.67;;;;;13.97;27.30;101544.38;5082778;28;45313;-68
2022/04/04 11:19:46;;;;;;;;;4.00;3.67;;;;;13.39;27.91;101538.25;5072430;28;45424;-71
2022/04/04 11:22:25;;;;;;;;;5.00;4.00;;;;;12.88;28.18;101528.53;5065213;28;45500;-71
2022/04/04 11:24:56;;;;;;;;;5.67;4.00;;;;;13.47;27.55;101525.59;5069976;28;46526;-75
2022/04/04 11:27:25;;;;;;;;;7.00;5.00;;;;;13.55;27.86;101516.66;5069273;27;45340;-70